Time;durP1;ratioP1;P1;durP2;ratioP2;P2;SDS_P1;SDS_P2;PMS_P1;PMS_P2;Temp;Humidity;BMP_temperature;BMP_pressure;BME280_temperature;BME280_humidity;BME280_pressure;Samples;Min_cycle;Max_cycle;Signal;HPM_P1;HPM_P2
2023/02/27 00:01:06;;;;;;;2.65;0.75;;;4.60;57.70;;;;;;5023729;28;20100;-67
2023/02/27 00:03:32;;;;;;;0.55;0.50;;;4.60;57.80;;;;;;5026995;28;20029;-66
2023/02/27 00:05:58;;;;;;;1.00;0.38;;;4.60;57.80;;;;;;5012551;28;20074;-59
2023/02/27 00:08:24;;;;;;;0.90;0.63;;;4.60;57.80;;;;;;4995846;28;20115;-60
2023/02/27 00:10:49;;;;;;;0.88;0.60;;;4.50;57.80;;;;;;5029102;28;20036;-60
2023/02/27 00:13:15;;;;;;;0.85;0.57;;;4.50;58.00;;;;;;5001521;28;20495;-60
2023/02/27 00:15:44;;;;;;;0.65;0.65;;;4.50;58.10;;;;;;5031919;28;20116;-60
2023/02/27 00:18:10;;;;;;;0.82;0.70;;;4.50;58.20;;;;;;5007828;28;20025;-59
2023/02/27 00:20:36;;;;;;;2.38;0.90;;;4.40;58.40;;;;;;5026112;28;20503;-60
2023/02/27 00:23:06;;;;;;;1.33;0.75;;;4.40;58.50;;;;;;5031927;28;20044;-61
2023/02/27 00:25:33;;;;;;;0.93;0.65;;;4.40;58.50;;;;;;5030702;28;20025;-65
2023/02/27 00:27:59;;;;;;;0.75;0.52;;;4.40;58.50;;;;;;5008823;28;20025;-66
2023/02/27 00:30:25;;;;;;;1.23;0.68;;;4.30;58.60;;;;;;5028668;28;20048;-66
2023/02/27 00:32:54;;;;;;;1.65;0.77;;;4.30;59.30;;;;;;5034758;28;20040;-66
2023/02/27 00:35:21;;;;;;;0.52;0.43;;;4.30;58.90;;;;;;5020192;28;20133;-65
2023/02/27 00:37:47;;;;;;;1.85;0.60;;;4.30;58.90;;;;;;5027329;28;20098;-66
2023/02/27 00:40:13;;;;;;;0.30;0.30;;;4.30;58.90;;;;;;5024206;28;20489;-66
2023/02/27 00:42:39;;;;;;;0.60;0.40;;;4.30;58.90;;;;;;5023786;28;20041;-66
2023/02/27 00:45:05;;;;;;;1.38;0.88;;;4.20;58.80;;;;;;5019254;28;20084;-66
2023/02/27 00:47:33;;;;;;;0.65;0.47;;;4.20;58.80;;;;;;5025293;28;20029;-66
2023/02/27 00:49:58;;;;;;;0.73;0.50;;;4.20;58.80;;;;;;5033123;28;20021;-59
2023/02/27 00:52:24;;;;;;;1.60;0.88;;;4.20;58.80;;;;;;5013854;28;20124;-59
2023/02/27 00:54:50;;;;;;;1.13;0.75;;;4.20;59.00;;;;;;5035696;28;20537;-66
2023/02/27 00:57:16;;;;;;;7.15;0.63;;;4.20;59.10;;;;;;5024082;28;20048;-66
2023/02/27 00:59:42;;;;;;;0.40;0.40;;;4.20;59.20;;;;;;5017940;28;20053;-66
2023/02/27 01:02:08;;;;;;;1.67;0.52;;;4.20;59.10;;;;;;5027597;28;20060;-66
2023/02/27 01:04:34;;;;;;;2.15;0.60;;;4.20;59.20;;;;;;5009520;28;20048;-66
2023/02/27 01:07:00;;;;;;;1.00;0.60;;;4.20;59.20;;;;;;5028110;28;20033;-66
2023/02/27 01:09:26;;;;;;;0.35;0.35;;;4.20;59.40;;;;;;5034524;28;20041;-65
2023/02/27 01:11:52;;;;;;;3.22;0.65;;;4.10;59.40;;;;;;5034651;28;20030;-66
2023/02/27 01:14:18;;;;;;;0.55;0.40;;;4.10;59.40;;;;;;5030301;28;20029;-59
2023/02/27 01:16:43;;;;;;;0.73;0.70;;;4.10;59.50;;;;;;5025942;28;20025;-60
2023/02/27 01:19:09;;;;;;;0.35;0.35;;;4.10;59.50;;;;;;5037144;28;20484;-60
2023/02/27 01:21:35;;;;;;;2.13;0.77;;;4.10;59.70;;;;;;5028745;28;20045;-60
2023/02/27 01:24:01;;;;;;;0.20;0.20;;;4.00;59.60;;;;;;5014769;28;20034;-60
2023/02/27 01:26:27;;;;;;;0.93;0.47;;;4.00;59.70;;;;;;5008811;28;20155;-61
2023/02/27 01:28:53;;;;;;;1.50;1.00;;;4.00;59.70;;;;;;5020548;28;20144;-59
2023/02/27 01:31:19;;;;;;;0.45;0.45;;;4.00;59.80;;;;;;5024033;28;20029;-60
2023/02/27 01:33:44;;;;;;;0.52;0.43;;;4.00;59.90;;;;;;5021531;28;20101;-65
2023/02/27 01:36:10;;;;;;;1.85;0.80;;;3.90;60.00;;;;;;5005873;28;20163;-66
2023/02/27 01:38:36;;;;;;;0.82;0.50;;;3.90;60.10;;;;;;5022720;28;20091;-66
2023/02/27 01:41:03;;;;;;;0.30;0.30;;;3.90;60.30;;;;;;5025346;28;20017;-60
2023/02/27 01:43:29;;;;;;;0.43;0.43;;;3.90;60.30;;;;;;5025905;28;20033;-61
2023/02/27 01:45:54;;;;;;;0.50;0.47;;;3.80;60.20;;;;;;5006020;28;20087;-60
2023/02/27 01:48:20;;;;;;;0.30;0.30;;;3.80;60.30;;;;;;5030517;28;20111;-60
2023/02/27 01:50:57;;;;;;;1.10;0.57;;;3.80;60.40;;;;;;5023174;28;20036;-60
2023/02/27 01:53:24;;;;;;;0.40;0.40;;;3.80;60.40;;;;;;5004400;28;20532;-60
2023/02/27 01:55:54;;;;;;;0.75;0.55;;;3.80;60.70;;;;;;5027437;28;20360;-65
2023/02/27 01:58:20;;;;;;;0.85;0.70;;;3.70;60.70;;;;;;5028892;28;20029;-59
2023/02/27 02:00:47;;;;;;;0.60;0.50;;;3.70;60.80;;;;;;5020826;28;20504;-61
2023/02/27 02:03:30;;;;;;;1.83;0.63;;;3.70;61.00;;;;;;5023854;28;20053;-60
2023/02/27 02:05:58;;;;;;;0.32;0.32;;;3.70;60.90;;;;;;5024482;28;20087;-61
2023/02/27 02:08:27;;;;;;;1.35;0.88;;;3.60;61.10;;;;;;5026585;28;20387;-60
2023/02/27 02:10:54;;;;;;;0.73;0.63;;;3.60;61.20;;;;;;5026380;28;20124;-61
2023/02/27 02:13:21;;;;;;;1.17;0.70;;;3.60;61.30;;;;;;5029184;28;20138;-66
2023/02/27 02:16:02;;;;;;;0.65;0.65;;;3.60;61.50;;;;;;5029668;28;20025;-65
2023/02/27 02:18:38;;;;;;;3.45;1.02;;;3.60;61.50;;;;;;5032326;28;20033;-66
2023/02/27 02:21:34;;;;;;;2.25;0.57;;;3.60;61.50;;;;;;5026532;28;20560;-65
2023/02/27 02:24:30;;;;;;;0.40;0.40;;;3.60;61.60;;;;;;5015911;28;20025;-65
2023/02/27 02:27:27;;;;;;;0.63;0.47;;;3.50;61.80;;;;;;5033013;28;20025;-59
2023/02/27 02:30:12;;;;;;;0.85;0.75;;;3.60;61.90;;;;;;5027404;28;20120;-59
2023/02/27 02:32:55;;;;;;;0.65;0.60;;;3.50;61.90;;;;;;5034246;28;20033;-60
2023/02/27 02:35:32;;;;;;;0.47;0.47;;;3.50;62.10;;;;;;5028735;28;20485;-60
2023/02/27 02:38:17;;;;;;;1.10;0.77;;;3.50;62.10;;;;;;5033602;28;20438;-60
2023/02/27 02:41:03;;;;;;;1.52;0.90;;;3.40;62.10;;;;;;5033780;28;20372;-59
2023/02/27 02:43:43;;;;;;;5.07;0.90;;;3.40;62.30;;;;;;5023637;28;20033;-60
2023/02/27 02:46:13;;;;;;;2.38;1.02;;;3.40;62.50;;;;;;5025038;28;20123;-67
2023/02/27 02:49:12;;;;;;;1.73;0.77;;;3.40;62.60;;;;;;5024374;28;20034;-66
2023/02/27 02:51:51;;;;;;;1.58;0.77;;;3.40;62.50;;;;;;5008768;28;20546;-66
2023/02/27 02:54:39;;;;;;;2.00;0.82;;;3.40;62.70;;;;;;5023867;28;20426;-66
2023/02/27 02:57:16;;;;;;;2.05;0.75;;;3.30;62.60;;;;;;5033199;28;20485;-66
2023/02/27 03:00:06;;;;;;;0.93;0.70;;;3.30;62.70;;;;;;5011178;28;20045;-60
2023/02/27 03:02:42;;;;;;;1.40;1.00;;;3.30;62.80;;;;;;5012497;28;20061;-64
2023/02/27 03:05:17;;;;;;;2.42;1.08;;;3.30;63.10;;;;;;5030252;28;20026;-60
2023/02/27 03:07:56;;;;;;;2.17;1.20;;;3.20;63.20;;;;;;5009065;28;20415;-60
2023/02/27 03:10:25;;;;;;;1.55;0.90;;;3.20;63.30;;;;;;5029007;28;20052;-65
2023/02/27 03:13:12;;;;;;;0.40;0.40;;;3.20;63.40;;;;;;5027482;28;20490;-59
2023/02/27 03:15:58;;;;;;;3.70;1.42;;;3.20;63.40;;;;;;5030255;28;20391;-60
2023/02/27 03:18:31;;;;;;;1.42;0.63;;;3.10;63.50;;;;;;5026482;28;20064;-65
2023/02/27 03:21:03;;;;;;;1.50;0.70;;;3.10;63.60;;;;;;5029496;28;20017;-65
2023/02/27 03:23:34;;;;;;;1.70;0.77;;;3.10;63.60;;;;;;5027375;28;20033;-65
2023/02/27 03:26:01;;;;;;;1.30;1.10;;;3.00;63.90;;;;;;5023312;28;20021;-66
2023/02/27 03:28:32;;;;;;;0.93;0.85;;;3.00;63.90;;;;;;5028043;28;20029;-65
2023/02/27 03:31:08;;;;;;;0.95;0.88;;;3.10;64.00;;;;;;5036693;28;20028;-65
2023/02/27 03:33:42;;;;;;;1.10;0.70;;;3.10;64.10;;;;;;5027937;28;20057;-65
2023/02/27 03:36:16;;;;;;;0.75;0.70;;;3.00;64.10;;;;;;5033403;28;20032;-65
2023/02/27 03:38:50;;;;;;;1.08;0.68;;;3.00;64.10;;;;;;5028204;28;20504;-65
2023/02/27 03:41:34;;;;;;;1.17;0.70;;;3.00;64.10;;;;;;5034136;28;20029;-65
2023/02/27 03:44:25;;;;;;;0.65;0.60;;;3.00;64.10;;;;;;5006552;28;20021;-66
2023/02/27 03:46:51;;;;;;;0.77;0.73;;;3.00;64.30;;;;;;5030806;28;20087;-60
2023/02/27 03:49:16;;;;;;;1.45;0.95;;;2.90;64.30;;;;;;5010368;28;20427;-60
2023/02/27 03:51:42;;;;;;;2.40;0.88;;;2.90;64.40;;;;;;5037388;28;21381;-60
2023/02/27 03:54:08;;;;;;;1.55;0.80;;;2.90;64.60;;;;;;5026956;28;20022;-60
2023/02/27 03:57:07;;;;;;;0.55;0.55;;;2.90;64.70;;;;;;5021443;28;20039;-60
2023/02/27 03:59:36;;;;;;;1.00;0.82;;;2.90;64.70;;;;;;4998319;28;20043;-60
2023/02/27 04:02:03;;;;;;;1.75;0.75;;;2.80;65.60;;;;;;4989226;28;20022;-65
2023/02/27 04:04:32;;;;;;;0.85;0.75;;;2.80;65.00;;;;;;4989536;28;20023;-65
2023/02/27 04:07:24;;;;;;;2.75;1.15;;;2.80;65.10;;;;;;4984018;28;20473;-66
2023/02/27 04:10:27;;;;;;;0.93;0.75;;;2.80;65.20;;;;;;4987662;28;20054;-66
2023/02/27 04:13:14;;;;;;;1.20;0.85;;;2.70;65.10;;;;;;4999301;28;20026;-59
2023/02/27 04:15:42;;;;;;;8.90;0.80;;;2.70;65.20;;;;;;4988807;28;20035;-65
2023/02/27 04:18:45;;;;;;;1.08;0.70;;;2.70;65.40;;;;;;4981072;28;20050;-65
2023/02/27 04:21:40;;;;;;;1.33;1.10;;;2.70;65.50;;;;;;4988618;28;20072;-65
2023/02/27 04:24:56;;;;;;;1.40;0.60;;;2.70;65.80;;;;;;4985590;28;20042;-66
2023/02/27 04:27:33;;;;;;;1.52;0.73;;;2.70;66.20;;;;;;4964644;28;20035;-66
2023/02/27 04:30:20;;;;;;;1.33;0.65;;;2.60;66.30;;;;;;4965231;28;20030;-61
2023/02/27 04:32:57;;;;;;;1.88;0.75;;;2.70;66.50;;;;;;4978183;28;20379;-60
2023/02/27 04:35:45;;;;;;;2.28;0.85;;;2.60;66.70;;;;;;4988676;28;20030;-61
2023/02/27 04:38:38;;;;;;;0.40;0.40;;;2.60;66.60;;;;;;4988181;28;20026;-61
2023/02/27 04:41:13;;;;;;;1.40;0.95;;;2.70;66.60;;;;;;4990515;28;20054;-65
2023/02/27 04:43:40;;;;;;;0.85;0.47;;;2.60;66.80;;;;;;4981434;28;20026;-61
2023/02/27 04:46:09;;;;;;;1.15;0.70;;;2.60;66.90;;;;;;4988803;28;20105;-66
2023/02/27 04:48:44;;;;;;;0.80;0.80;;;2.60;67.10;;;;;;4988234;28;20068;-66
2023/02/27 04:51:14;;;;;;;1.65;0.77;;;2.70;67.10;;;;;;4983014;28;20478;-66
2023/02/27 04:53:47;;;;;;;1.58;0.75;;;2.70;67.00;;;;;;4987716;28;20018;-67
2023/02/27 04:56:18;;;;;;;0.93;0.82;;;2.70;67.00;;;;;;4998660;28;20058;-60
2023/02/27 04:58:53;;;;;;;0.47;0.40;;;2.70;67.00;;;;;;4987162;28;20031;-61
2023/02/27 05:01:42;;;;;;;1.55;0.65;;;2.70;67.50;;;;;;5019232;28;20046;-60
2023/02/27 05:04:12;;;;;;;1.15;0.95;;;2.70;66.90;;;;;;5023120;28;20026;-61
2023/02/27 05:06:41;;;;;;;1.23;0.88;;;2.60;66.90;;;;;;5027801;28;20045;-61
2023/02/27 05:09:25;;;;;;;2.40;0.85;;;2.60;66.90;;;;;;5030908;28;20033;-61
2023/02/27 05:12:26;;;;;;;3.42;1.02;;;2.60;66.90;;;;;;5030672;28;20040;-60
2023/02/27 05:14:58;;;;;;;1.35;0.77;;;2.60;67.00;;;;;;5022230;28;20512;-60
2023/02/27 05:17:39;;;;;;;0.57;0.57;;;2.50;67.10;;;;;;5022665;28;20030;-66
2023/02/27 05:20:06;;;;;;;1.42;0.70;;;2.50;67.20;;;;;;5028733;28;20025;-67
2023/02/27 05:22:45;;;;;;;2.30;0.75;;;2.50;67.20;;;;;;5026427;28;20030;-66
2023/02/27 05:25:27;;;;;;;2.85;1.25;;;2.50;67.20;;;;;;5035946;28;20087;-66
2023/02/27 05:28:01;;;;;;;1.35;1.25;;;2.50;67.10;;;;;;5017051;28;20056;-67
2023/02/27 05:30:33;;;;;;;1.02;0.80;;;2.50;67.20;;;;;;5022530;28;20059;-66
2023/02/27 05:33:40;;;;;;;5.60;1.00;;;2.50;67.20;;;;;;5011193;28;20523;-66
2023/02/27 05:36:29;;;;;;;1.05;0.77;;;2.50;67.20;;;;;;5021495;28;20079;-65
2023/02/27 05:39:03;;;;;;;3.00;1.33;;;2.40;67.40;;;;;;5017018;28;20530;-66
2023/02/27 05:41:55;;;;;;;6.68;0.90;;;2.40;67.60;;;;;;5032380;28;20026;-66
2023/02/27 05:44:34;;;;;;;6.57;0.93;;;2.40;67.50;;;;;;5030637;28;20068;-60
2023/02/27 05:47:06;;;;;;;0.95;0.70;;;2.40;67.70;;;;;;5036160;28;20043;-61
2023/02/27 05:49:37;;;;;;;1.45;0.95;;;2.40;67.70;;;;;;5029337;28;20030;-61
2023/02/27 05:52:09;;;;;;;1.08;0.70;;;2.40;67.70;;;;;;5039870;28;20029;-59
2023/02/27 05:54:50;;;;;;;1.25;1.15;;;2.40;67.80;;;;;;5011758;28;20025;-60
2023/02/27 05:57:23;;;;;;;1.13;0.55;;;2.30;67.90;;;;;;5029714;28;20116;-67
2023/02/27 06:00:07;;;;;;;1.65;0.70;;;2.30;68.00;;;;;;5011242;28;20423;-66
2023/02/27 06:02:33;;;;;;;1.85;0.90;;;2.30;67.90;;;;;;5032590;28;20033;-61
2023/02/27 06:05:00;;;;;;;10.18;1.30;;;2.30;68.10;;;;;;5031683;28;20496;-60
2023/02/27 06:07:25;;;;;;;1.20;0.85;;;2.30;68.10;;;;;;5032856;28;20496;-62
2023/02/27 06:09:51;;;;;;;1.25;1.02;;;2.30;68.10;;;;;;5040950;28;20057;-61
2023/02/27 06:12:18;;;;;;;8.05;0.88;;;2.30;68.20;;;;;;5017810;28;20037;-61
2023/02/27 06:14:43;;;;;;;0.68;0.68;;;2.30;68.20;;;;;;5015870;28;20079;-61
2023/02/27 06:17:09;;;;;;;1.80;1.00;;;2.30;68.50;;;;;;5028907;28;20473;-61
2023/02/27 06:19:35;;;;;;;2.00;0.98;;;2.30;68.50;;;;;;5029149;28;20389;-67
2023/02/27 06:22:01;;;;;;;3.17;0.98;;;2.30;68.60;;;;;;5029769;28;20026;-67
2023/02/27 06:24:26;;;;;;;1.15;0.60;;;2.30;68.60;;;;;;5033117;28;20021;-66
2023/02/27 06:26:52;;;;;;;7.15;1.02;;;2.30;68.50;;;;;;5018202;28;20064;-66
2023/02/27 06:29:18;;;;;;;1.02;0.52;;;2.30;68.50;;;;;;5013687;28;20064;-66
2023/02/27 06:31:44;;;;;;;1.67;1.20;;;2.30;68.60;;;;;;5027614;28;20033;-66
2023/02/27 06:34:09;;;;;;;2.22;0.90;;;2.30;68.70;;;;;;5027815;28;20029;-61
2023/02/27 06:36:35;;;;;;;0.93;0.70;;;2.40;68.70;;;;;;5027741;28;20040;-61
2023/02/27 06:39:01;;;;;;;1.08;0.77;;;2.40;68.60;;;;;;5034484;28;20038;-60
2023/02/27 06:41:27;;;;;;;0.85;0.68;;;2.40;68.60;;;;;;5010328;28;20018;-61
2023/02/27 06:43:54;;;;;;;2.92;0.93;;;2.40;68.60;;;;;;5026654;28;20029;-60
2023/02/27 06:46:20;;;;;;;2.45;0.82;;;2.40;68.60;;;;;;5031667;28;20793;-61
2023/02/27 06:48:46;;;;;;;1.83;0.80;;;2.40;68.50;;;;;;5030870;28;20109;-60
2023/02/27 06:51:11;;;;;;;1.70;0.80;;;2.40;68.60;;;;;;5028115;28;20038;-61
2023/02/27 06:53:37;;;;;;;0.80;0.68;;;2.40;68.50;;;;;;5029387;28;20068;-61
2023/02/27 06:56:03;;;;;;;0.50;0.50;;;2.40;68.50;;;;;;5033307;28;20029;-60
2023/02/27 06:58:29;;;;;;;1.23;0.88;;;2.50;68.60;;;;;;5013154;28;20370;-61
2023/02/27 07:00:57;;;;;;;1.85;1.10;;;2.40;68.40;;;;;;5008838;28;20091;-62
2023/02/27 07:03:22;;;;;;;1.77;1.02;;;2.50;68.60;;;;;;5021885;28;20037;-59
2023/02/27 07:05:49;;;;;;;4.10;0.80;;;2.50;68.60;;;;;;5018277;28;20022;-59
2023/02/27 07:08:16;;;;;;;0.63;0.50;;;2.50;68.60;;;;;;5010155;28;20036;-64
2023/02/27 07:10:46;;;;;;;1.42;1.17;;;2.50;68.50;;;;;;5006127;28;20548;-62
2023/02/27 07:13:15;;;;;;;1.05;0.75;;;2.60;68.50;;;;;;5016119;28;20068;-62
2023/02/27 07:15:42;;;;;;;1.17;0.68;;;2.60;68.50;;;;;;5022426;28;20083;-66
2023/02/27 07:18:08;;;;;;;2.33;0.85;;;2.60;68.40;;;;;;5022890;28;20088;-67
2023/02/27 07:20:33;;;;;;;3.13;1.30;;;2.60;68.40;;;;;;5010365;28;20488;-63
2023/02/27 07:22:59;;;;;;;3.15;1.48;;;2.70;68.40;;;;;;5019855;28;20531;-61
2023/02/27 07:25:25;;;;;;;1.52;0.95;;;2.70;68.30;;;;;;5017338;28;20444;-63
2023/02/27 07:27:51;;;;;;;2.05;0.95;;;2.70;68.30;;;;;;5024653;28;20049;-66
2023/02/27 07:30:18;;;;;;;3.15;1.00;;;2.80;68.30;;;;;;5008572;28;20374;-62
2023/02/27 07:32:44;;;;;;;1.40;0.93;;;2.80;68.30;;;;;;5018101;28;20017;-67
2023/02/27 07:35:10;;;;;;;1.70;1.00;;;2.80;68.30;;;;;;5034930;28;20472;-62
2023/02/27 07:37:37;;;;;;;0.75;0.70;;;2.80;68.20;;;;;;5029449;28;20033;-66
2023/02/27 07:40:04;;;;;;;0.82;0.77;;;2.90;68.10;;;;;;5027506;28;20500;-67
2023/02/27 07:42:30;;;;;;;1.10;0.93;;;2.90;68.00;;;;;;5030641;28;20025;-66
2023/02/27 07:44:55;;;;;;;1.85;0.90;;;3.00;68.00;;;;;;5008457;28;20076;-66
2023/02/27 07:47:21;;;;;;;0.63;0.60;;;3.00;67.90;;;;;;5010154;28;20037;-66
2023/02/27 07:49:47;;;;;;;0.95;0.82;;;3.10;68.00;;;;;;5034015;28;20034;-67
2023/02/27 07:52:12;;;;;;;4.30;0.95;;;3.20;67.90;;;;;;5028965;28;20036;-62
2023/02/27 07:54:38;;;;;;;4.47;1.05;;;3.20;68.30;;;;;;5024780;28;20029;-63
2023/02/27 07:57:04;;;;;;;0.98;0.80;;;3.30;67.70;;;;;;5009835;28;20036;-67
2023/02/27 07:59:30;;;;;;;1.02;0.70;;;3.40;67.50;;;;;;5030178;28;20125;-67
2023/02/27 08:01:56;;;;;;;2.13;1.42;;;3.40;67.30;;;;;;5030837;28;20763;-66
2023/02/27 08:04:22;;;;;;;0.75;0.63;;;3.50;67.20;;;;;;5028724;28;20412;-63
2023/02/27 08:06:47;;;;;;;1.40;0.70;;;3.50;67.10;;;;;;5023059;28;20029;-67
2023/02/27 08:09:13;;;;;;;4.00;0.80;;;3.60;67.00;;;;;;5014370;28;20025;-65
2023/02/27 08:11:39;;;;;;;3.22;0.82;;;3.70;66.90;;;;;;5024134;28;20541;-65
2023/02/27 08:14:05;;;;;;;8.15;1.00;;;3.80;67.30;;;;;;5011758;28;20504;-65
2023/02/27 08:16:30;;;;;;;0.80;0.63;;;3.80;66.60;;;;;;5010190;28;20029;-64
2023/02/27 08:18:56;;;;;;;2.88;0.32;;;4.00;66.40;;;;;;5027645;28;20041;-65
2023/02/27 08:21:22;;;;;;;0.98;0.70;;;4.10;66.20;;;;;;5034469;28;20105;-64
2023/02/27 08:23:48;;;;;;;0.38;0.35;;;4.20;66.00;;;;;;5007298;28;20033;-66
2023/02/27 08:26:14;;;;;;;1.63;0.68;;;4.20;65.70;;;;;;5020149;28;20026;-65
2023/02/27 08:28:39;;;;;;;0.75;0.50;;;4.30;66.10;;;;;;5032351;28;20481;-65
2023/02/27 08:31:06;;;;;;;0.47;0.47;;;4.40;65.40;;;;;;5009932;28;20030;-64
2023/02/27 08:33:32;;;;;;;0.40;0.30;;;4.50;65.30;;;;;;5031989;28;20040;-65
2023/02/27 08:35:58;;;;;;;0.82;0.57;;;4.60;64.90;;;;;;5034360;28;20036;-64
2023/02/27 08:38:24;;;;;;;0.63;0.60;;;4.70;64.60;;;;;;5011914;28;20036;-64
2023/02/27 08:40:52;;;;;;;0.73;0.57;;;4.70;64.30;;;;;;5024857;28;20036;-65
2023/02/27 08:43:19;;;;;;;1.75;0.60;;;4.80;64.10;;;;;;5034480;28;20479;-64
2023/02/27 08:45:46;;;;;;;1.35;0.55;;;4.90;64.00;;;;;;5014283;28;20032;-64
2023/02/27 08:48:14;;;;;;;1.70;0.80;;;5.00;63.80;;;;;;5035129;28;20416;-65
2023/02/27 08:50:41;;;;;;;0.93;0.47;;;5.10;63.60;;;;;;4996704;28;20032;-64
2023/02/27 08:53:07;;;;;;;3.05;0.77;;;5.20;63.30;;;;;;5011116;28;20132;-66
2023/02/27 08:55:33;;;;;;;0.40;0.40;;;5.30;63.20;;;;;;5000509;28;20416;-65
2023/02/27 08:57:58;;;;;;;0.55;0.30;;;5.40;62.90;;;;;;5031454;28;20043;-65
2023/02/27 09:00:25;;;;;;;1.13;0.60;;;5.50;62.70;;;;;;5024781;28;20089;-66
2023/02/27 09:02:51;;;;;;;0.50;0.40;;;5.60;62.30;;;;;;5028715;28;20091;-61
2023/02/27 09:05:17;;;;;;;0.45;0.30;;;5.60;62.00;;;;;;5023605;28;20392;-61
2023/02/27 09:07:43;;;;;;;1.30;0.50;;;5.70;61.80;;;;;;5006156;28;20026;-61
2023/02/27 09:10:11;;;;;;;2.03;0.85;;;5.90;61.60;;;;;;5027977;28;20578;-66
2023/02/27 09:12:36;;;;;;;2.40;0.38;;;6.00;61.30;;;;;;5020496;28;20563;-66
2023/02/27 09:15:04;;;;;;;0.80;0.50;;;6.20;61.10;;;;;;5025301;28;20029;-66
2023/02/27 09:17:30;;;;;;;0.82;0.70;;;6.30;60.90;;;;;;5031757;28;20493;-66
2023/02/27 09:19:56;;;;;;;0.40;0.40;;;6.50;60.40;;;;;;5013811;28;20055;-68
2023/02/27 09:22:22;;;;;;;0.98;0.57;;;6.60;60.10;;;;;;5033728;28;20029;-66
2023/02/27 09:24:47;;;;;;;5.85;0.63;;;6.70;59.90;;;;;;5033194;28;20056;-66
2023/02/27 09:27:13;;;;;;;1.70;0.50;;;6.80;59.30;;;;;;5003470;28;20040;-66
2023/02/27 09:29:39;;;;;;;0.88;0.57;;;7.00;59.00;;;;;;5029621;28;20038;-66
2023/02/27 09:32:05;;;;;;;0.40;0.40;;;7.00;58.80;;;;;;5027337;28;20034;-63
2023/02/27 09:34:31;;;;;;;1.45;0.63;;;7.20;58.80;;;;;;5028737;28;20026;-62
2023/02/27 09:37:00;;;;;;;0.65;0.50;;;7.30;58.50;;;;;;5034422;28;20022;-62
2023/02/27 09:39:26;;;;;;;0.65;0.60;;;7.40;58.30;;;;;;5034270;28;20041;-62
2023/02/27 09:41:58;;;;;;;2.78;0.90;;;7.60;58.00;;;;;;5026197;28;20037;-62
2023/02/27 09:44:39;;;;;;;1.58;0.77;;;7.70;57.70;;;;;;5034563;28;20037;-62
2023/02/27 09:47:12;;;;;;;2.78;0.93;;;7.80;57.00;;;;;;5025958;28;20025;-63
2023/02/27 09:49:57;;;;;;;0.52;0.52;;;7.80;56.70;;;;;;5025047;28;20039;-62
2023/02/27 09:52:23;;;;;;;1.13;0.52;;;7.80;56.30;;;;;;5027422;28;20038;-62
2023/02/27 09:54:49;;;;;;;2.30;0.52;;;7.90;55.90;;;;;;5029283;28;20036;-63
2023/02/27 09:57:23;;;;;;;0.28;0.28;;;8.00;55.80;;;;;;5022960;28;20042;-62
2023/02/27 10:00:13;;;;;;;0.88;0.43;;;8.10;55.50;;;;;;5028185;28;20440;-66
2023/02/27 10:02:50;;;;;;;0.55;0.50;;;8.20;55.40;;;;;;5030456;28;20017;-66
2023/02/27 10:05:34;;;;;;;0.40;0.40;;;8.30;55.10;;;;;;5028158;28;20052;-67
2023/02/27 10:08:15;;;;;;;0.55;0.32;;;8.50;54.70;;;;;;5028600;28;20033;-65
2023/02/27 10:11:13;;;;;;;0.40;0.40;;;8.60;54.40;;;;;;5015030;28;20025;-66
2023/02/27 10:14:14;;;;;;;0.32;0.32;;;8.80;54.10;;;;;;5014636;28;20045;-66
2023/02/27 10:16:41;;;;;;;1.65;0.65;;;8.90;53.60;;;;;;5009717;28;20037;-66
2023/02/27 10:19:15;;;;;;;0.88;0.30;;;9.10;53.10;;;;;;5029639;28;20068;-66
2023/02/27 10:21:45;;;;;;;1.05;0.80;;;9.20;53.20;;;;;;5034255;28;20044;-66
2023/02/27 10:24:31;;;;;;;0.28;0.28;;;9.30;53.10;;;;;;5035551;28;20464;-63
2023/02/27 10:27:01;;;;;;;1.00;0.50;;;9.40;52.80;;;;;;5030755;28;20025;-62
2023/02/27 10:29:35;;;;;;;2.67;0.90;;;9.60;52.90;;;;;;5026271;28;20388;-62
2023/02/27 10:32:31;;;;;;;2.50;0.60;;;9.70;52.40;;;;;;5035129;28;20082;-66
2023/02/27 10:35:09;;;;;;;0.55;0.43;;;10.00;52.10;;;;;;5031295;28;20487;-62
2023/02/27 10:37:38;;;;;;;0.38;0.38;;;10.10;51.90;;;;;;5017153;28;20439;-66
2023/02/27 10:40:05;;;;;;;2.05;0.77;;;10.20;51.10;;;;;;5011155;28;20034;-66
2023/02/27 10:42:37;;;;;;;0.88;0.45;;;10.20;50.80;;;;;;5022671;28;20117;-66
2023/02/27 10:45:04;;;;;;;0.20;0.20;;;10.30;50.20;;;;;;5012462;28;20433;-62
2023/02/27 10:47:30;;;;;;;0.40;0.40;;;10.30;50.50;;;;;;5031175;28;20032;-62
2023/02/27 10:49:58;;;;;;;4.63;0.60;;;10.40;50.10;;;;;;5031782;28;20030;-62
2023/02/27 10:52:25;;;;;;;0.28;0.28;;;10.40;50.20;;;;;;5027341;28;20042;-61
2023/02/27 10:54:51;;;;;;;0.73;0.50;;;10.50;49.90;;;;;;5027529;28;20040;-62
2023/02/27 10:57:31;;;;;;;0.70;0.60;;;10.50;49.50;;;;;;5026730;28;20129;-62
2023/02/27 11:00:03;;;;;;;0.90;0.60;;;10.40;49.10;;;;;;5024716;28;20107;-62
2023/02/27 11:02:40;;;;;;;0.75;0.28;;;10.10;49.00;;;;;;5024583;28;20476;-61
2023/02/27 11:05:27;;;;;;;0.80;0.32;;;9.80;49.30;;;;;;5022938;28;20048;-62
2023/02/27 11:08:10;;;;;;;0.43;0.43;;;9.50;49.60;;;;;;5030208;28;20029;-62
2023/02/27 11:10:36;;;;;;;1.33;0.20;;;9.60;49.90;;;;;;5027865;28;20105;-63
2023/02/27 11:13:20;;;;;;;0.50;0.50;;;9.70;49.00;;;;;;5023414;28;20477;-63
2023/02/27 11:16:10;;;;;;;1.55;0.70;;;9.80;49.00;;;;;;5025940;28;20052;-62
2023/02/27 11:18:42;;;;;;;3.22;0.30;;;10.00;48.10;;;;;;5021545;28;20033;-62
2023/02/27 11:21:19;;;;;;;1.38;0.50;;;10.00;47.90;;;;;;5002422;28;20022;-66
2023/02/27 11:23:55;;;;;;;1.98;0.30;;;10.20;47.70;;;;;;5026019;28;20405;-66
2023/02/27 11:26:36;;;;;;;0.20;0.20;;;10.40;47.20;;;;;;5028077;28;20043;-66
2023/02/27 11:29:17;;;;;;;0.20;0.20;;;10.60;46.30;;;;;;5026460;28;20029;-65
2023/02/27 11:32:10;;;;;;;2.80;0.70;;;10.60;46.00;;;;;;5028941;28;20021;-65
2023/02/27 11:34:39;;;;;;;0.88;0.10;;;10.50;46.40;;;;;;5028282;28;20107;-65
2023/02/27 11:37:20;;;;;;;1.90;0.35;;;10.50;46.10;;;;;;5032287;28;20375;-66
2023/02/27 11:39:52;;;;;;;0.20;0.20;;;10.50;45.60;;;;;;5016749;28;20032;-65
2023/02/27 11:42:29;;;;;;;1.30;0.30;;;10.40;45.60;;;;;;5035271;28;20171;-65
2023/02/27 11:45:35;;;;;;;0.60;0.55;;;10.30;45.70;;;;;;5014015;28;20144;-64
2023/02/27 11:48:17;;;;;;;0.30;0.25;;;10.40;45.60;;;;;;5024540;28;20064;-66
2023/02/27 11:50:52;;;;;;;1.85;0.40;;;10.60;45.70;;;;;;5022088;28;20030;-63
2023/02/27 11:53:32;;;;;;;0.70;0.40;;;10.50;45.10;;;;;;5021272;28;20025;-65
2023/02/27 11:56:02;;;;;;;1.45;0.50;;;10.30;45.40;;;;;;5029262;28;20040;-61
2023/02/27 11:58:39;;;;;;;0.25;0.25;;;10.10;45.60;;;;;;5014439;28;20145;-61
2023/02/27 12:01:19;;;;;;;0.30;0.30;;;10.00;46.10;;;;;;5025486;28;20037;-67
2023/02/27 12:03:54;;;;;;;0.20;0.20;;;10.00;46.60;;;;;;5015404;28;20083;-67
2023/02/27 12:06:27;;;;;;;2.42;0.73;;;10.10;46.40;;;;;;5028296;28;20038;-61
2023/02/27 12:08:57;;;;;;;0.98;0.70;;;10.30;46.70;;;;;;5023316;28;20388;-67
2023/02/27 12:11:28;;;;;;;0.35;0.35;;;10.80;46.50;;;;;;5027131;28;20527;-61
2023/02/27 12:14:14;;;;;;;0.93;0.65;;;11.30;46.00;;;;;;5033021;28;20029;-60
2023/02/27 12:17:00;;;;;;;0.40;0.40;;;12.00;45.30;;;;;;5023323;28;20044;-61
2023/02/27 12:19:36;;;;;;;0.75;0.30;;;12.70;44.50;;;;;;5026628;28;20029;-62
2023/02/27 12:22:30;;;;;;;1.38;0.40;;;13.00;43.10;;;;;;5024196;28;20037;-61
2023/02/27 12:25:11;;;;;;;1.73;0.20;;;13.30;42.70;;;;;;5028052;28;20431;-61
2023/02/27 12:27:45;;;;;;;1.75;0.73;;;13.50;42.10;;;;;;5031018;28;20028;-61
2023/02/27 12:30:21;;;;;;;1.60;0.50;;;13.50;41.90;;;;;;5028687;28;20112;-61
2023/02/27 12:33:39;;;;;;;6.63;0.50;;;13.40;41.60;;;;;;5031450;28;20026;-66
2023/02/27 12:36:20;;;;;;;0.20;0.10;;;13.10;41.60;;;;;;4945433;28;20570;-66
2023/02/27 12:38:46;;;;;;;0.28;0.28;;;12.80;41.50;;;;;;5025591;28;20022;-67
2023/02/27 12:41:44;;;;;;;0.20;0.20;;;12.50;42.30;;;;;;4996447;28;20037;-67
2023/02/27 12:44:33;;;;;;;3.75;0.60;;;12.30;42.10;;;;;;5003597;28;20034;-66
2023/02/27 12:47:02;;;;;;;1.65;0.30;;;12.20;42.70;;;;;;5027447;28;20112;-61
2023/02/27 12:49:40;;;;;;;0.75;0.35;;;12.20;42.60;;;;;;5027651;28;20025;-61
2023/02/27 12:52:21;;;;;;;1.55;0.20;;;12.10;42.60;;;;;;5022109;28;20021;-60
2023/02/27 12:55:14;;;;;;;0.85;0.30;;;12.00;43.10;;;;;;5025220;28;20025;-60
2023/02/27 12:58:17;;;;;;;1.83;0.20;;;12.00;43.20;;;;;;5011339;28;20033;-60
2023/02/27 13:01:21;;;;;;;1.35;0.30;;;12.10;43.20;;;;;;5020189;28;20061;-66
2023/02/27 13:04:01;;;;;;;0.63;0.30;;;12.10;42.80;;;;;;5022243;28;20443;-66
2023/02/27 13:06:45;;;;;;;2.10;0.80;;;11.80;42.60;;;;;;5031584;28;20031;-66
2023/02/27 13:09:14;;;;;;;0.38;0.38;;;11.50;43.30;;;;;;5029434;28;20113;-67
2023/02/27 13:11:43;;;;;;;0.88;0.40;;;11.30;43.30;;;;;;5024750;28;20076;-66
2023/02/27 13:14:18;;;;;;;0.85;0.43;;;11.20;43.80;;;;;;5016031;28;20036;-66
2023/02/27 13:16:53;;;;;;;1.25;0.85;;;11.50;44.10;;;;;;5025709;28;20026;-67
2023/02/27 13:19:43;;;;;;;0.65;0.50;;;11.90;43.30;;;;;;5008663;28;20076;-67
2023/02/27 13:22:22;;;;;;;0.95;0.73;;;12.40;42.80;;;;;;5018694;28;20388;-66
2023/02/27 13:24:55;;;;;;;0.30;0.30;;;12.70;42.00;;;;;;5023333;28;20022;-66
2023/02/27 13:27:31;;;;;;;0.77;0.60;;;12.70;42.00;;;;;;5023808;28;20033;-66